Time;durP1;ratioP1;P1;durP2;ratioP2;P2;SDS_P1;SDS_P2;PMS_P1;PMS_P2;Temp;Humidity;BMP_temperature;BMP_pressure;BME280_temperature;BME280_humidity;BME280_pressure;Samples;Min_cycle;Max_cycle;Signal;HPM_P1;HPM_P2
2021/06/20 00:00:30;;;;;;;1.85;1.75;;;;;;;15.54;74.17;99698.41;6168339;23;20009;-74
2021/06/20 00:02:58;;;;;;;1.05;1.05;;;;;;;15.56;74.22;99705.56;6195004;23;20072;-71
2021/06/20 00:05:29;;;;;;;0.82;0.82;;;;;;;15.56;74.42;99702.78;6188404;23;20015;-75
2021/06/20 00:07:55;;;;;;;1.23;1.23;;;;;;;15.58;74.48;99700.53;6193268;23;20462;-73
2021/06/20 00:10:25;;;;;;;1.83;1.73;;;;;;;15.59;74.44;99685.63;6189311;23;20009;-73
2021/06/20 00:12:52;;;;;;;1.60;1.60;;;;;;;15.69;74.55;99685.34;6163565;23;20004;-76
2021/06/20 00:15:20;;;;;;;1.58;1.55;;;;;;;15.75;74.43;99684.06;6185328;23;20005;-71
2021/06/20 00:17:46;;;;;;;1.80;1.80;;;;;;;15.76;74.23;99680.19;6182587;23;20089;-74
2021/06/20 00:20:14;;;;;;;6.63;2.30;;;;;;;15.86;73.85;99679.13;6154367;23;20335;-74
2021/06/20 00:22:40;;;;;;;1.35;1.25;;;;;;;15.91;73.54;99669.88;6184834;23;20020;-74
2021/06/20 00:25:06;;;;;;;1.08;1.08;;;;;;;15.97;73.80;99668.59;6180747;23;20018;-73
2021/06/20 00:27:33;;;;;;;1.58;1.58;;;;;;;15.98;73.68;99667.47;6180246;23;20001;-74
2021/06/20 00:29:59;;;;;;;1.48;1.48;;;;;;;16.01;74.02;99664.06;6161448;23;20032;-73
2021/06/20 00:32:24;;;;;;;1.40;1.30;;;;;;;16.05;73.58;99665.06;6154425;23;20033;-74
2021/06/20 00:34:51;;;;;;;1.70;1.70;;;;;;;16.04;73.46;99663.41;6186279;23;20288;-73
2021/06/20 00:37:16;;;;;;;1.20;1.20;;;;;;;16.07;73.36;99657.25;6185871;23;20044;-73
2021/06/20 00:39:51;;;;;;;2.03;1.92;;;;;;;16.03;73.37;99645.25;6181291;23;20013;-73
2021/06/20 00:42:55;;;;;;;2.60;1.98;;;;;;;16.10;73.36;99645.59;6183819;23;20012;-73
2021/06/20 00:45:21;;;;;;;1.42;1.42;;;;;;;16.03;73.08;99639.72;6190718;23;20037;-73
2021/06/20 00:48:35;;;;;;;1.00;1.00;;;;;;;16.14;73.28;99643.00;6189053;23;20056;-75
2021/06/20 00:51:26;;;;;;;1.08;1.08;;;;;;;16.20;73.18;99634.22;6190116;23;20432;-74
2021/06/20 00:53:52;;;;;;;1.50;1.50;;;;;;;16.22;72.93;99631.16;6164711;23;20328;-75
2021/06/20 00:56:18;;;;;;;1.30;1.30;;;;;;;16.20;72.55;99625.16;6184922;23;20005;-76
2021/06/20 00:58:44;;;;;;;2.08;1.98;;;;;;;16.16;72.78;99619.47;6188466;23;20044;-74
2021/06/20 01:01:10;;;;;;;1.70;1.65;;;;;;;16.14;72.74;99618.97;6191081;23;20008;-76
2021/06/20 01:03:35;;;;;;;1.95;1.85;;;;;;;16.11;72.64;99625.16;6190520;23;20085;-74
2021/06/20 01:06:01;;;;;;;1.45;1.45;;;;;;;16.05;72.56;99618.19;6188821;23;20335;-74
2021/06/20 01:08:55;;;;;;;1.55;1.55;;;;;;;16.04;72.99;99620.09;6188005;23;20032;-73
2021/06/20 01:11:21;;;;;;;1.05;1.05;;;;;;;16.00;72.76;99619.16;6190383;23;20103;-75
2021/06/20 01:14:40;;;;;;;1.83;1.65;;;;;;;16.03;72.82;99617.66;6190445;23;20016;-74
2021/06/20 01:17:06;;;;;;;1.42;1.42;;;;;;;15.97;72.89;99618.97;6189317;23;20036;-74
2021/06/20 01:19:34;;;;;;;1.88;1.45;;;;;;;15.97;72.84;99619.75;6161634;23;20009;-75
2021/06/20 01:22:32;;;;;;;1.90;1.80;;;;;;;16.04;72.57;99616.53;6165855;23;20036;-73
2021/06/20 01:25:48;;;;;;;2.20;2.10;;;;;;;16.01;72.81;99609.72;6183590;23;20323;-74
2021/06/20 01:28:41;;;;;;;2.17;1.98;;;;;;;16.05;72.57;99621.72;6181338;23;20013;-74
2021/06/20 01:31:11;;;;;;;2.40;2.30;;;;;;;15.99;72.44;99612.00;6195799;23;20064;-75
2021/06/20 01:33:38;;;;;;;1.73;1.73;;;;;;;15.99;72.58;99611.16;6169787;23;20005;-75
2021/06/20 01:39:37;;;;;;;2.30;1.90;;;;;;;15.94;72.33;99589.28;6156871;22;20087;-75
2021/06/20 01:49:44;;;;;;;2.80;2.60;;;;;;;15.74;72.97;99588.75;6227589;22;20017;-74
2021/06/20 01:55:33;;;;;;;3.85;2.90;;;;;;;15.85;72.53;99619.59;6222538;23;20020;-74
2021/06/20 01:58:01;;;;;;;2.80;2.70;;;;;;;15.65;72.50;99580.47;6213311;23;20051;-74
2021/06/20 02:01:08;;;;;;;3.08;2.90;;;;;;;15.91;72.49;99614.75;6220353;23;20007;-74
2021/06/20 02:04:13;;;;;;;;;;;;;;;;;;;;;
2021/06/20 02:06:49;;;;;;;3.17;2.97;;;;;;;15.80;72.22;99604.03;6203979;23;20004;-75
2021/06/20 02:09:14;;;;;;;2.58;2.47;;;;;;;15.82;72.77;99604.50;6222863;23;20013;-75
2021/06/20 02:11:40;;;;;;;3.95;3.70;;;;;;;15.80;72.99;99609.53;6195796;23;20011;-74
2021/06/20 02:14:05;;;;;;;3.50;3.40;;;;;;;15.77;72.64;99610.16;6226116;23;20008;-75
2021/06/20 02:16:31;;;;;;;4.97;4.68;;;;;;;15.74;72.47;99605.28;6172656;23;20009;-74
2021/06/20 02:18:56;;;;;;;5.07;4.78;;;;;;;15.73;72.45;99614.66;6216636;23;20012;-73
2021/06/20 02:21:21;;;;;;;4.22;3.92;;;;;;;15.74;72.90;99610.78;6171152;23;20028;-74
2021/06/20 02:23:47;;;;;;;3.78;3.58;;;;;;;15.73;72.62;99605.59;6172095;23;20004;-74
2021/06/20 02:26:12;;;;;;;4.25;3.97;;;;;;;15.69;72.98;99605.41;6220390;23;20012;-74
2021/06/20 02:28:38;;;;;;;3.05;2.85;;;;;;;15.70;72.56;99610.59;6220905;23;20005;-75
2021/06/20 02:31:03;;;;;;;5.78;2.95;;;;;;;15.73;72.86;99614.66;6196562;23;20095;-71
2021/06/20 02:33:29;;;;;;;4.10;3.90;;;;;;;15.72;72.75;99607.53;6212696;23;20004;-74
2021/06/20 02:35:54;;;;;;;4.45;4.20;;;;;;;15.75;72.71;99611.59;6219602;23;20016;-74
2021/06/20 02:38:20;;;;;;;4.55;4.15;;;;;;;15.70;73.17;99605.09;6219230;22;20040;-74
2021/06/20 02:41:19;;;;;;;5.15;4.45;;;;;;;15.76;72.56;99610.47;6169071;23;20027;-73
2021/06/20 02:45:33;;;;;;;5.03;4.47;;;;;;;15.82;72.30;99611.97;6253296;23;20024;-74
2021/06/20 02:48:24;;;;;;;3.08;2.97;;;;;;;15.78;72.38;99609.03;6239043;23;20378;-74
2021/06/20 02:50:49;;;;;;;4.57;4.22;;;;;;;15.69;72.72;99597.94;6240536;23;20015;-75
2021/06/20 02:53:14;;;;;;;4.13;3.92;;;;;;;15.66;72.63;99598.59;6215935;23;20016;-75
2021/06/20 02:55:40;;;;;;;3.78;3.58;;;;;;;15.72;72.79;99602.00;6242642;23;20011;-74
2021/06/20 02:58:06;;;;;;;4.43;4.18;;;;;;;15.73;72.85;99591.81;6218867;23;20011;-73
2021/06/20 03:00:31;;;;;;;4.05;3.78;;;;;;;15.74;72.65;99594.25;6221626;23;20011;-74
2021/06/20 03:02:56;;;;;;;3.72;3.13;;;;;;;15.76;72.77;99596.69;6251101;23;20018;-73
2021/06/20 03:05:23;;;;;;;4.47;4.18;;;;;;;15.72;72.43;99602.00;6248188;23;20014;-72
2021/06/20 03:07:48;;;;;;;3.33;3.13;;;;;;;15.71;72.79;99603.97;6222415;23;20377;-72
2021/06/20 03:10:14;;;;;;;3.03;2.90;;;;;;;15.67;72.81;99599.41;6216355;23;20012;-73
2021/06/20 03:12:40;;;;;;;4.50;4.10;;;;;;;15.64;72.88;99594.56;6246505;23;20043;-74
2021/06/20 03:15:06;;;;;;;3.25;3.15;;;;;;;15.62;72.93;99588.53;6246657;23;20011;-73
2021/06/20 03:17:31;;;;;;;3.78;3.45;;;;;;;15.66;72.59;99597.78;6253656;23;19996;-74
2021/06/20 03:19:57;;;;;;;5.30;2.85;;;;;;;15.67;73.03;99593.91;6225212;23;20381;-74
2021/06/20 03:22:27;;;;;;;2.85;2.65;;;;;;;15.66;72.74;99597.78;6225548;23;20067;-75
2021/06/20 03:25:18;;;;;;;2.70;2.58;;;;;;;15.69;73.05;99591.63;6225569;23;20039;-74
2021/06/20 03:28:09;;;;;;;2.97;2.70;;;;;;;15.71;72.67;99594.88;6224532;23;20000;-76
2021/06/20 03:30:35;;;;;;;2.83;2.72;;;;;;;15.66;72.63;99595.84;6251532;23;20078;-75
2021/06/20 03:33:02;;;;;;;2.80;2.70;;;;;;;15.62;72.67;99596.81;6251512;23;20008;-75
2021/06/20 03:35:28;;;;;;;2.80;2.60;;;;;;;15.58;72.71;99595.81;6256414;23;20000;-77
2021/06/20 03:47:08;;;;;;;2.40;2.30;;;;;;;15.56;72.67;99595.34;6208238;23;20023;-75
2021/06/20 03:49:37;;;;;;;2.70;2.60;;;;;;;15.53;73.05;99589.31;6228117;23;20008;-76
2021/06/20 03:52:21;;;;;;;2.20;2.08;;;;;;;15.59;72.68;99591.94;6174070;23;20008;-74
2021/06/20 03:54:50;;;;;;;2.20;2.00;;;;;;;15.56;72.66;99589.81;6176300;23;20022;-74
2021/06/20 03:57:28;;;;;;;2.80;2.17;;;;;;;15.57;72.73;99599.72;6199227;23;20007;-74
2021/06/20 04:00:14;;;;;;;6.75;1.75;;;;;;;15.48;72.83;99583.97;6222505;23;20001;-74
2021/06/20 04:02:54;;;;;;;1.60;1.60;;;;;;;15.49;72.91;99593.84;6221904;23;20004;-74
2021/06/20 04:08:43;;;;;;;2.97;2.78;;;;;;;15.44;72.72;99573.91;6220041;23;20059;-75
2021/06/20 04:12:13;;;;;;;;;;;;;;;;;;;;;
2021/06/20 04:18:23;;;;;;;2.25;2.15;;;;;;;15.47;72.99;99579.56;6219311;23;20082;-74
2021/06/20 04:20:49;;;;;;;1.92;1.83;;;;;;;15.49;72.99;99588.34;6220625;23;20001;-72
2021/06/20 04:23:18;;;;;;;1.70;1.60;;;;;;;15.52;72.86;99590.47;6195767;23;20422;-73
2021/06/20 04:28:50;;;;;;;2.75;2.55;;;;;;;15.62;72.66;99594.03;6220358;23;20095;-73
2021/06/20 04:31:23;;;;;;;1.70;1.60;;;;;;;15.59;72.93;99591.94;6218594;23;20012;-73
2021/06/20 04:33:54;;;;;;;1.73;1.63;;;;;;;15.64;73.15;99589.03;6188467;23;20334;-73
2021/06/20 04:36:19;;;;;;;1.83;1.73;;;;;;;15.60;72.82;99591.59;6220864;23;20383;-72
2021/06/20 04:38:49;;;;;;;2.28;2.08;;;;;;;15.68;72.62;99596.34;6219076;23;20005;-73
2021/06/20 04:41:17;;;;;;;1.42;1.33;;;;;;;15.70;72.92;99596.03;6164290;23;20039;-72
2021/06/20 04:46:37;;;;;;;1.90;1.80;;;;;;;15.71;72.81;99595.69;6196416;23;20051;-72
2021/06/20 04:49:17;;;;;;;1.42;1.33;;;;;;;15.71;72.78;99589.34;6193524;23;20040;-74
2021/06/20 04:51:42;;;;;;;1.77;1.67;;;;;;;15.76;72.43;99603.00;6220985;23;20009;-74
2021/06/20 04:54:13;;;;;;;1.70;1.60;;;;;;;15.76;73.01;99594.72;6193677;23;20491;-75
2021/06/20 04:56:40;;;;;;;1.42;1.40;;;;;;;15.74;73.06;99594.25;6219045;23;20031;-73
2021/06/20 04:59:17;;;;;;;1.63;1.55;;;;;;;15.76;72.54;99597.50;6219164;23;20111;-74
2021/06/20 05:02:06;;;;;;;4.53;2.03;;;;;;;15.78;72.77;99589.72;6224400;23;20005;-74
2021/06/20 05:04:34;;;;;;;1.50;1.48;;;;;;;15.86;72.39;99602.72;6191535;23;20000;-74
2021/06/20 05:07:01;;;;;;;3.75;1.60;;;;;;;15.83;72.78;99595.09;6222409;23;19996;-72
2021/06/20 05:09:27;;;;;;;2.75;2.63;;;;;;;15.81;72.65;99583.59;6216307;23;20012;-73
2021/06/20 05:12:15;;;;;;;1.63;1.52;;;;;;;15.97;72.33;99592.19;6216713;23;20063;-74
2021/06/20 05:14:44;;;;;;;1.30;1.20;;;;;;;15.98;72.46;99602.09;6216573;23;20007;-72
2021/06/20 05:17:14;;;;;;;2.28;2.17;;;;;;;16.00;72.26;99599.84;6217868;23;20000;-73
2021/06/20 05:19:40;;;;;;;5.32;2.17;;;;;;;16.00;72.31;99602.59;6213171;23;20000;-72
2021/06/20 05:22:06;;;;;;;2.22;2.13;;;;;;;16.01;72.21;99608.91;6184773;23;20013;-72
2021/06/20 05:24:32;;;;;;;3.30;3.10;;;;;;;15.99;72.07;99605.66;6211638;23;20009;-72
2021/06/20 05:26:58;;;;;;;2.33;2.15;;;;;;;15.97;72.30;99613.44;6222607;23;20004;-72
2021/06/20 05:29:23;;;;;;;3.13;2.58;;;;;;;15.91;72.33;99603.72;6221789;23;20092;-73
2021/06/20 05:31:49;;;;;;;2.95;2.70;;;;;;;15.93;72.39;99602.25;6195342;23;20001;-73
2021/06/20 05:34:14;;;;;;;2.65;2.30;;;;;;;15.90;72.16;99613.09;6219481;23;20000;-74
2021/06/20 05:36:40;;;;;;;2.28;1.77;;;;;;;15.88;72.15;99610.69;6194640;23;20054;-75
2021/06/20 05:39:06;;;;;;;2.17;2.08;;;;;;;15.87;72.28;99609.88;6221130;23;20012;-73
2021/06/20 05:41:32;;;;;;;1.90;1.80;;;;;;;15.87;72.54;99604.34;6221389;23;20011;-74
2021/06/20 05:43:57;;;;;;;2.50;2.30;;;;;;;15.94;72.25;99608.56;6222335;23;20091;-74
2021/06/20 05:46:23;;;;;;;1.40;1.33;;;;;;;15.97;72.35;99602.41;6216711;23;20059;-75
2021/06/20 05:48:49;;;;;;;1.73;1.63;;;;;;;16.01;72.35;99597.88;6220499;23;20087;-73
2021/06/20 05:51:15;;;;;;;1.90;1.80;;;;;;;16.01;71.98;99592.38;6212483;23;20005;-73
2021/06/20 05:53:42;;;;;;;2.22;2.03;;;;;;;16.02;72.59;99594.81;6217541;23;20044;-72
2021/06/20 05:56:08;;;;;;;1.75;1.63;;;;;;;16.00;72.16;99591.56;6216555;23;20012;-73
2021/06/20 05:58:34;;;;;;;1.98;1.58;;;;;;;16.06;72.21;99589.44;6213149;23;20071;-72
2021/06/20 06:00:59;;;;;;;2.03;1.92;;;;;;;16.10;72.26;99595.94;6190568;23;20016;-73
2021/06/20 06:03:53;;;;;;;1.65;1.60;;;;;;;16.15;72.41;99593.03;6217949;23;20016;-73
2021/06/20 06:06:39;;;;;;;1.70;1.63;;;;;;;16.26;72.18;99603.75;6210291;23;20015;-73
2021/06/20 06:09:35;;;;;;;1.88;1.60;;;;;;;16.29;72.29;99592.06;6193200;23;20009;-74
2021/06/20 06:14:50;;;;;;;6.85;1.92;;;;;;;16.43;71.88;99595.47;6234364;22;20347;-73
2021/06/20 06:17:16;;;;;;;2.00;1.90;;;;;;;16.46;71.82;99603.09;6243318;23;20030;-73
2021/06/20 06:19:41;;;;;;;4.03;2.85;;;;;;;16.48;71.86;99597.25;6253916;23;20004;-77
2021/06/20 06:22:10;;;;;;;2.67;2.47;;;;;;;16.57;71.88;99603.56;6255245;23;20004;-77
2021/06/20 06:24:56;;;;;;;2.50;2.35;;;;;;;16.71;71.71;99603.41;6230654;23;20008;-76
2021/06/20 06:27:50;;;;;;;3.22;2.30;;;;;;;16.83;71.13;99603.53;6254331;23;20339;-79
2021/06/20 06:30:16;;;;;;;3.05;2.75;;;;;;;16.86;70.83;99602.84;6249900;23;20008;-77
2021/06/20 06:32:43;;;;;;;3.15;2.95;;;;;;;16.89;70.81;99593.97;6254792;23;20008;-75
2021/06/20 06:35:10;;;;;;;3.50;3.30;;;;;;;17.00;70.77;99597.19;6230868;23;20008;-76
2021/06/20 06:37:38;;;;;;;2.58;2.38;;;;;;;16.95;70.35;99599.31;6231336;23;20047;-78
2021/06/20 06:40:07;;;;;;;2.45;2.25;;;;;;;17.01;70.62;99606.28;6255691;23;20004;-75
2021/06/20 06:42:33;;;;;;;3.05;2.17;;;;;;;16.93;70.09;99617.00;6255442;23;20009;-76
2021/06/20 06:44:58;;;;;;;2.10;2.00;;;;;;;16.88;70.06;99614.44;6257846;23;20004;-76
2021/06/20 06:47:24;;;;;;;1.65;1.55;;;;;;;16.85;70.04;99622.50;6228440;23;20008;-76
2021/06/20 06:49:50;;;;;;;2.83;2.63;;;;;;;16.79;71.03;99615.56;6230130;23;20000;-76
2021/06/20 06:52:16;;;;;;;2.33;2.22;;;;;;;16.77;70.94;99624.16;6254769;23;20014;-77
2021/06/20 06:54:53;;;;;;;2.70;2.05;;;;;;;16.81;70.96;99630.66;6257209;23;20015;-78
2021/06/20 06:57:19;;;;;;;2.05;1.95;;;;;;;16.84;70.83;99629.19;6254886;23;20058;-77
2021/06/20 06:59:45;;;;;;;1.80;1.70;;;;;;;16.87;70.73;99629.38;6227745;23;20008;-75
2021/06/20 07:02:11;;;;;;;2.05;1.95;;;;;;;16.98;70.68;99642.84;6250822;23;20007;-76
2021/06/20 07:04:36;;;;;;;1.45;1.35;;;;;;;17.04;70.44;99638.75;6254635;23;20061;-78
2021/06/20 07:07:02;;;;;;;1.50;1.40;;;;;;;17.13;70.64;99631.28;6253213;23;20092;-72
2021/06/20 07:09:28;;;;;;;2.35;2.25;;;;;;;17.15;69.93;99631.75;6251400;23;20008;-74
2021/06/20 07:11:53;;;;;;;1.85;1.75;;;;;;;17.09;70.11;99631.09;6216631;23;20014;-75
2021/06/20 07:14:19;;;;;;;2.95;1.90;;;;;;;17.15;70.26;99645.56;6224082;23;20016;-75
2021/06/20 07:16:44;;;;;;;1.65;1.55;;;;;;;17.16;70.06;99641.66;6225053;23;20004;-78
2021/06/20 07:19:10;;;;;;;1.60;1.50;;;;;;;17.14;70.42;99641.16;6249406;23;20004;-75
2021/06/20 07:21:36;;;;;;;1.73;1.63;;;;;;;17.19;69.95;99642.97;6248936;23;20062;-73
2021/06/20 07:24:02;;;;;;;2.10;1.88;;;;;;;17.21;70.11;99652.50;6248287;23;20134;-74
2021/06/20 07:26:28;;;;;;;1.65;1.63;;;;;;;17.21;69.95;99644.22;6247016;23;20011;-75
2021/06/20 07:28:54;;;;;;;1.55;1.45;;;;;;;17.21;69.99;99644.22;6245421;23;20012;-74
2021/06/20 07:31:24;;;;;;;1.42;1.42;;;;;;;17.27;70.17;99647.63;6214992;23;20019;-77
2021/06/20 07:34:34;;;;;;;1.00;1.00;;;;;;;17.41;69.92;99647.44;6251560;23;20007;-77
2021/06/20 07:37:12;;;;;;;1.80;1.70;;;;;;;17.48;69.59;99661.56;6220791;23;20029;-75
2021/06/20 07:39:38;;;;;;;1.67;1.58;;;;;;;17.41;69.61;99652.97;6246088;23;20017;-77
2021/06/20 07:42:04;;;;;;;1.83;1.73;;;;;;;17.37;69.24;99654.75;6224545;23;20004;-76
2021/06/20 07:44:30;;;;;;;1.08;1.08;;;;;;;17.36;69.79;99661.41;6201943;23;20019;-75
2021/06/20 07:46:55;;;;;;;1.15;1.05;;;;;;;17.33;69.94;99656.56;6201996;23;20008;-75
2021/06/20 07:49:21;;;;;;;1.48;1.38;;;;;;;17.35;69.94;99655.09;6226246;23;20030;-74
2021/06/20 07:51:46;;;;;;;0.70;0.70;;;;;;;17.37;70.00;99655.56;6222561;23;20008;-75
2021/06/20 07:54:13;;;;;;;1.17;1.17;;;;;;;17.44;69.75;99652.28;6201970;23;20015;-75
2021/06/20 07:56:38;;;;;;;1.60;1.50;;;;;;;17.47;69.65;99654.38;6248351;23;20620;-79
2021/06/20 07:59:04;;;;;;;2.15;1.30;;;;;;;17.50;69.66;99650.97;6253583;23;20009;-81
2021/06/20 08:01:31;;;;;;;2.30;1.48;;;;;;;17.60;69.31;99656.13;6253045;23;20004;-79
2021/06/20 08:04:01;;;;;;;0.85;0.85;;;;;;;17.59;68.99;99654.50;6252695;23;20019;-77
2021/06/20 08:06:27;;;;;;;0.70;0.70;;;;;;;17.65;68.96;99651.56;6201914;23;20007;-73
2021/06/20 08:09:18;;;;;;;0.63;0.63;;;;;;;17.75;69.36;99676.06;6192692;23;20032;-75
2021/06/20 08:20:46;;;;;;;0.75;0.60;;;;;;;17.50;69.37;99669.50;6201890;23;20008;-73
2021/06/20 08:30:52;;;;;;;0.75;0.70;;;;;;;17.54;69.48;99662.97;6173113;23;20038;-75
2021/06/20 08:33:17;;;;;;;1.10;1.10;;;;;;;17.51;69.26;99673.88;6246809;23;20103;-73
2021/06/20 08:35:59;;;;;;;0.60;0.60;;;;;;;17.48;68.98;99675.38;6220260;23;20023;-78
2021/06/20 08:38:42;;;;;;;0.52;0.52;;;;;;;17.38;69.33;99667.44;6230837;23;20001;-78
2021/06/20 08:41:15;;;;;;;1.30;0.70;;;;;;;17.38;69.44;99675.72;6257585;23;20000;-79
2021/06/20 08:43:57;;;;;;;;;;;;;;;;;;;;;
2021/06/20 08:53:33;;;;;;;0.40;0.40;;;;;;;17.14;69.93;99677.06;6044700;23;20463;-77
2021/06/20 08:56:18;;;;;;;1.42;0.90;;;;;;;17.16;70.27;99680.34;6050409;23;20018;-78
2021/06/20 09:09:26;;;;;;;0.60;0.60;;;;;;;17.14;70.66;99666.03;5873574;23;20053;-80
2021/06/20 09:11:52;;;;;;;1.90;1.13;;;;;;;17.14;70.52;99660.50;6028119;23;20012;-77
2021/06/20 09:14:22;;;;;;;1.42;1.08;;;;;;;16.96;70.42;99639.59;6133987;23;20037;-80
2021/06/20 09:17:31;;;;;;;1.17;1.10;;;;;;;17.16;70.60;99654.66;6086568;23;20077;-81
2021/06/20 09:20:04;;;;;;;1.10;1.10;;;;;;;17.07;70.71;99649.97;6144988;23;20000;-82
2021/06/20 09:22:46;;;;;;;0.65;0.65;;;;;;;17.19;70.79;99665.06;6225300;23;20415;-79
2021/06/20 09:28:40;;;;;;;0.63;0.52;;;;;;;17.22;70.97;99656.91;6245089;23;20369;-78
2021/06/20 09:34:00;;;;;;;0.45;0.45;;;;;;;17.42;71.10;99662.84;6129089;23;20037;-77
2021/06/20 09:39:48;;;;;;;0.20;0.20;;;;;;;17.89;70.96;99657.28;6254508;23;20090;-79
2021/06/20 09:42:21;;;;;;;0.40;0.40;;;;;;;18.16;71.02;99660.72;6253088;23;20008;-78
2021/06/20 09:44:49;;;;;;;0.95;0.90;;;;;;;18.21;70.38;99646.72;6253880;23;20438;-80
2021/06/20 09:47:21;;;;;;;0.70;0.70;;;;;;;18.39;69.42;99674.25;6248578;23;20008;-75
2021/06/20 09:49:49;;;;;;;0.60;0.60;;;;;;;18.33;69.13;99668.09;6250586;23;20004;-77
2021/06/20 09:56:00;;;;;;;;;;;;;;;18.34;68.76;99668.91;6222713;23;20023;-78
2021/06/20 09:59:23;;;;;;;0.70;0.70;;;;;;;18.31;69.05;99665.69;6183171;23;19915;-84
2021/06/20 10:05:43;;;;;;;0.50;0.50;;;;;;;18.68;69.33;99670.59;6111470;23;20133;-77
2021/06/20 10:12:18;;;;;;;0.60;0.60;;;;;;;19.00;68.70;99666.25;6163577;23;20044;-80
2021/06/20 10:14:45;;;;;;;0.43;0.43;;;;;;;19.09;68.26;99662.59;6138669;23;20345;-76
2021/06/20 10:20:54;;;;;;;;;;;;;;;;;;;;;
2021/06/20 10:24:01;;;;;;;0.50;0.50;;;;;;;19.82;67.75;99672.19;6161930;23;20032;-74
2021/06/20 10:30:15;;;;;;;0.52;0.45;;;;;;;19.73;66.36;99652.03;6126584;23;20056;-74
2021/06/20 10:32:45;;;;;;;0.70;0.70;;;;;;;19.74;66.54;99664.75;6129535;23;20006;-76
2021/06/20 10:35:28;;;;;;;1.15;0.70;;;;;;;19.63;66.60;99659.66;6123638;23;20340;-74
2021/06/20 10:38:41;;;;;;;;;;;;;;;;;;;;;
2021/06/20 10:48:36;;;;;;;0.90;0.90;;;;;;;19.08;66.73;99672.84;5971910;23;20022;-75
2021/06/20 10:51:56;;;;;;;0.40;0.40;;;;;;;19.02;67.18;99677.78;6037062;23;20011;-79
2021/06/20 11:01:42;;;;;;;0.60;0.60;;;;;;;18.77;67.20;99654.69;5935103;24;20020;-80
2021/06/20 11:04:15;;;;;;;0.65;0.65;;;;;;;18.81;67.49;99668.69;5936344;24;20449;-79
2021/06/20 11:10:57;;;;;;;;;;;;;;;;;;;;;
2021/06/20 11:13:32;;;;;;;1.38;0.80;;;;;;;18.44;67.92;99651.91;5988425;24;20046;-76
2021/06/20 11:16:34;;;;;;;0.70;0.70;;;;;;;18.69;68.63;99660.31;5980209;23;20074;-76
2021/06/20 11:19:44;;;;;;;1.10;1.10;;;;;;;18.75;67.90;99645.09;6089790;23;20017;-76
2021/06/20 11:22:41;;;;;;;0.80;0.80;;;;;;;18.84;68.38;99645.84;6193788;23;20013;-77
2021/06/20 11:26:05;;;;;;;1.70;1.60;;;;;;;19.11;68.27;99652.75;6169482;23;20431;-79
2021/06/20 11:29:22;;;;;;;0.80;0.80;;;;;;;19.20;67.66;99630.50;6175356;23;20001;-78
2021/06/20 11:32:30;;;;;;;;;;;;;;;;;;;;;
2021/06/20 11:35:19;;;;;;;0.30;0.30;;;;;;;19.53;67.11;99638.75;6192451;23;20025;-77
2021/06/20 11:38:53;;;;;;;0.40;0.40;;;;;;;19.73;67.46;99657.59;6148056;23;20063;-77
2021/06/20 11:41:21;;;;;;;0.93;0.93;;;;;;;19.59;67.07;99631.00;6104303;23;20030;-78
2021/06/20 11:44:08;;;;;;;;;;;;;;;;;;;;;
2021/06/20 11:46:34;;;;;;;1.70;1.60;;;;;;;19.85;66.81;99649.31;6197903;23;20021;-79
2021/06/20 11:49:18;;;;;;;1.10;1.10;;;;;;;19.90;66.64;99651.03;6197508;23;20012;-79
2021/06/20 11:51:52;;;;;;;1.45;1.35;;;;;;;20.04;66.19;99662.59;6170337;23;20036;-78
2021/06/20 11:54:27;;;;;;;1.70;1.60;;;;;;;19.98;66.32;99642.59;6194614;23;20000;-78
2021/06/20 11:56:59;;;;;;;1.38;1.30;;;;;;;20.10;66.39;99650.09;6171456;23;20037;-78
2021/06/20 11:59:33;;;;;;;1.27;1.27;;;;;;;20.36;66.07;99657.22;6170146;23;20005;-80
2021/06/20 12:02:12;;;;;;;2.07;1.97;;;;;;;20.54;66.08;99641.06;6170150;23;20332;-78
2021/06/20 12:04:45;;;;;;;1.70;1.60;;;;;;;21.05;66.17;99655.22;6193360;23;20005;-79
2021/06/20 12:07:12;;;;;;;2.25;2.15;;;;;;;21.29;65.01;99636.81;6170783;23;20068;-79
2021/06/20 12:09:41;;;;;;;1.90;1.80;;;;;;;21.65;63.98;99637.72;6166422;23;20009;-79
2021/06/20 12:12:18;;;;;;;1.95;1.77;;;;;;;22.07;63.42;99653.81;6146101;23;20005;-80
2021/06/20 12:15:03;;;;;;;1.90;1.80;;;;;;;22.34;62.67;99651.28;6170576;23;20015;-79
2021/06/20 12:17:34;;;;;;;1.38;1.38;;;;;;;22.42;62.24;99653.03;6168104;23;20013;-79
2021/06/20 12:20:09;;;;;;;1.60;1.50;;;;;;;22.28;61.72;99619.25;6168541;23;20060;-77
2021/06/20 12:22:45;;;;;;;1.23;1.23;;;;;;;22.52;61.49;99648.84;6195473;23;20020;-78
2021/06/20 12:25:13;;;;;;;1.83;1.73;;;;;;;22.52;61.58;99645.28;6195762;23;20005;-78
2021/06/20 12:27:39;;;;;;;1.30;1.23;;;;;;;22.89;62.13;99637.25;6191938;23;20009;-79
2021/06/20 12:30:20;;;;;;;1.73;1.63;;;;;;;23.92;61.57;99653.44;6145455;23;20052;-78
2021/06/20 12:32:47;;;;;;;0.95;0.95;;;;;;;24.71;60.91;99650.94;6195585;23;20008;-79
2021/06/20 12:35:21;;;;;;;0.65;0.65;;;;;;;25.63;60.38;99648.66;6120746;23;20100;-78
2021/06/20 12:37:49;;;;;;;1.55;1.45;;;;;;;26.25;58.06;99654.31;6168650;23;20334;-79
2021/06/20 12:40:18;;;;;;;1.27;1.27;;;;;;;26.47;55.15;99657.25;6147355;23;20021;-77
2021/06/20 12:42:46;;;;;;;1.13;1.13;;;;;;;26.52;54.69;99656.88;6196305;23;19997;-79
2021/06/20 12:45:27;;;;;;;1.20;1.20;;;;;;;26.51;53.66;99655.28;6171182;23;20080;-79
2021/06/20 12:47:55;;;;;;;0.93;0.93;;;;;;;26.26;53.64;99650.34;6193595;23;20061;-77
2021/06/20 12:50:39;;;;;;;1.10;1.10;;;;;;;26.61;54.07;99648.91;6145553;23;20005;-75
2021/06/20 12:53:05;;;;;;;1.13;1.13;;;;;;;26.68;52.25;99647.34;6167785;23;20004;-77
2021/06/20 12:55:32;;;;;;;1.80;1.70;;;;;;;26.59;51.50;99651.31;6121332;23;20013;-77
2021/06/20 12:58:00;;;;;;;1.08;1.08;;;;;;;26.40;51.58;99646.00;6194144;23;20332;-80
2021/06/20 13:00:29;;;;;;;1.15;1.15;;;;;;;26.18;50.99;99645.91;6169722;23;20012;-79
2021/06/20 13:02:59;;;;;;;1.23;1.23;;;;;;;25.89;51.20;99642.88;6167932;23;20017;-76
2021/06/20 13:05:52;;;;;;;1.35;1.25;;;;;;;25.77;51.99;99640.38;6146479;23;20013;-75
2021/06/20 13:08:35;;;;;;;1.30;1.30;;;;;;;25.67;52.18;99646.72;6166003;23;20069;-76
2021/06/20 13:11:00;;;;;;;1.40;1.40;;;;;;;25.57;51.58;99637.84;6169930;23;20033;-77
2021/06/20 13:13:44;;;;;;;1.42;1.33;;;;;;;25.42;51.65;99636.94;6141930;23;20056;-76
2021/06/20 13:16:23;;;;;;;0.80;0.80;;;;;;;25.06;51.22;99644.13;6172017;23;20013;-77
2021/06/20 13:18:49;;;;;;;0.90;0.90;;;;;;;24.74;51.87;99647.38;6177828;23;20080;-78
2021/06/20 13:21:16;;;;;;;1.75;1.65;;;;;;;24.43;52.46;99637.38;6144317;23;20013;-76
2021/06/20 13:23:43;;;;;;;0.70;0.70;;;;;;;24.19;52.89;99651.41;6141324;23;20063;-75
2021/06/20 13:26:09;;;;;;;1.38;0.82;;;;;;;23.93;52.88;99631.91;6142884;23;20009;-74
2021/06/20 13:28:37;;;;;;;1.77;1.67;;;;;;;23.86;53.11;99647.34;6141491;23;20015;-75
2021/06/20 13:31:02;;;;;;;1.90;1.80;;;;;;;23.66;53.40;99651.41;6165179;23;20029;-75
2021/06/20 13:36:34;;;;;;;1.20;1.20;;;;;;;23.31;54.61;99644.03;6192599;23;20023;-75
2021/06/20 13:39:00;;;;;;;0.77;0.77;;;;;;;23.40;55.58;99641.78;6165082;23;20052;-73
2021/06/20 13:41:25;;;;;;;0.88;0.88;;;;;;;23.57;55.59;99642.44;6162492;23;20033;-74
2021/06/20 13:43:51;;;;;;;1.92;1.83;;;;;;;23.57;54.62;99636.88;6191754;23;20009;-74
2021/06/20 13:46:17;;;;;;;1.92;1.83;;;;;;;23.40;54.98;99643.78;6191550;23;20009;-74
2021/06/20 13:48:44;;;;;;;2.38;2.28;;;;;;;23.11;55.40;99640.47;6189228;23;20013;-74
2021/06/20 13:51:10;;;;;;;1.35;1.35;;;;;;;22.88;55.67;99648.75;6166134;23;20008;-73
2021/06/20 13:53:35;;;;;;;2.13;2.03;;;;;;;22.82;56.21;99651.88;6191673;23;20294;-75
2021/06/20 13:56:01;;;;;;;1.58;1.50;;;;;;;22.99;56.80;99638.63;6194701;23;20012;-75
2021/06/20 13:58:42;;;;;;;1.50;1.40;;;;;;;23.40;57.03;99644.56;6173912;23;19997;-75
2021/06/20 14:01:10;;;;;;;1.95;1.10;;;;;;;23.95;56.58;99649.09;6197397;23;20028;-75
2021/06/20 14:03:38;;;;;;;1.38;1.27;;;;;;;24.53;56.23;99637.53;6151968;23;20051;-73
2021/06/20 14:06:07;;;;;;;1.60;1.50;;;;;;;25.65;55.42;99655.50;6178108;23;20028;-74
2021/06/20 14:09:00;;;;;;;0.95;0.95;;;;;;;27.67;53.81;99654.41;6146001;23;20073;-74
2021/06/20 14:11:33;;;;;;;1.17;1.17;;;;;;;28.16;49.43;99649.13;6194430;23;20001;-74
2021/06/20 14:14:39;;;;;;;1.10;1.10;;;;;;;28.54;48.60;99662.69;6141600;23;20009;-76
2021/06/20 14:20:12;;;;;;;;;;;;;;;;;;;;;
2021/06/20 14:25:50;;;;;;;1.52;1.42;;;;;;;29.97;43.80;99632.03;6188896;23;20027;-74